sensor_id;sensor_type;location;lat;lon;timestamp;P1;durP1;ratioP1;P2;durP2;ratioP2
9964;SDS011;5023;53.554;9.964;2023-08-30T00:04:46;5.28;;;4.43;;
9964;SDS011;5023;53.554;9.964;2023-08-30T00:09:50;5.55;;;5.15;;
9964;SDS011;5023;53.554;9.964;2023-08-30T00:14:52;5.50;;;5.00;;
9964;SDS011;5023;53.554;9.964;2023-08-30T00:19:55;5.50;;;5.00;;
9964;SDS011;5023;53.554;9.964;2023-08-30T00:24:58;4.78;;;4.38;;
9964;SDS011;5023;53.554;9.964;2023-08-30T00:30:00;5.38;;;4.68;;
9964;SDS011;5023;53.554;9.964;2023-08-30T00:35:02;5.13;;;4.55;;
9964;SDS011;5023;53.554;9.964;2023-08-30T00:40:06;5.40;;;5.00;;
9964;SDS011;5023;53.554;9.964;2023-08-30T00:45:09;4.78;;;4.38;;
9964;SDS011;5023;53.554;9.964;2023-08-30T00:50:11;5.30;;;4.88;;
9964;SDS011;5023;53.554;9.964;2023-08-30T00:55:15;6.20;;;5.28;;
9964;SDS011;5023;53.554;9.964;2023-08-30T01:00:17;7.60;;;5.68;;
9964;SDS011;5023;53.554;9.964;2023-08-30T01:05:19;5.18;;;4.72;;
9964;SDS011;5023;53.554;9.964;2023-08-30T01:10:24;6.13;;;5.55;;
9964;SDS011;5023;53.554;9.964;2023-08-30T01:15:36;6.38;;;5.35;;
9964;SDS011;5023;53.554;9.964;2023-08-30T01:20:39;5.70;;;5.20;;
9964;SDS011;5023;53.554;9.964;2023-08-30T01:25:48;6.55;;;5.30;;
9964;SDS011;5023;53.554;9.964;2023-08-30T01:30:57;5.68;;;5.18;;
9964;SDS011;5023;53.554;9.964;2023-08-30T01:36:00;5.30;;;4.88;;
9964;SDS011;5023;53.554;9.964;2023-08-30T01:41:04;7.00;;;5.47;;
9964;SDS011;5023;53.554;9.964;2023-08-30T01:46:07;6.57;;;5.63;;
9964;SDS011;5023;53.554;9.964;2023-08-30T01:51:10;6.65;;;6.05;;
9964;SDS011;5023;53.554;9.964;2023-08-30T01:56:12;8.00;;;7.13;;
9964;SDS011;5023;53.554;9.964;2023-08-30T02:01:16;6.93;;;6.28;;
9964;SDS011;5023;53.554;9.964;2023-08-30T02:06:19;7.97;;;7.18;;
9964;SDS011;5023;53.554;9.964;2023-08-30T02:11:26;8.88;;;8.02;;
9964;SDS011;5023;53.554;9.964;2023-08-30T02:16:34;10.43;;;9.23;;
9964;SDS011;5023;53.554;9.964;2023-08-30T02:21:39;10.68;;;9.52;;
9964;SDS011;5023;53.554;9.964;2023-08-30T02:26:41;11.18;;;10.07;;
9964;SDS011;5023;53.554;9.964;2023-08-30T02:31:45;10.07;;;9.15;;
9964;SDS011;5023;53.554;9.964;2023-08-30T02:36:46;11.73;;;9.07;;
9964;SDS011;5023;53.554;9.964;2023-08-30T02:41:48;9.93;;;8.90;;
9964;SDS011;5023;53.554;9.964;2023-08-30T02:46:51;10.00;;;9.02;;
9964;SDS011;5023;53.554;9.964;2023-08-30T02:51:53;10.27;;;9.27;;
9964;SDS011;5023;53.554;9.964;2023-08-30T02:56:56;9.18;;;8.35;;
9964;SDS011;5023;53.554;9.964;2023-08-30T03:01:59;9.98;;;9.02;;
9964;SDS011;5023;53.554;9.964;2023-08-30T03:07:01;9.75;;;8.95;;
9964;SDS011;5023;53.554;9.964;2023-08-30T03:12:03;10.05;;;8.35;;
9964;SDS011;5023;53.554;9.964;2023-08-30T03:17:07;8.98;;;8.10;;
9964;SDS011;5023;53.554;9.964;2023-08-30T03:22:09;8.85;;;8.00;;
9964;SDS011;5023;53.554;9.964;2023-08-30T03:27:11;9.15;;;8.23;;
9964;SDS011;5023;53.554;9.964;2023-08-30T03:32:16;7.60;;;6.90;;
9964;SDS011;5023;53.554;9.964;2023-08-30T03:37:18;8.38;;;7.05;;
9964;SDS011;5023;53.554;9.964;2023-08-30T03:42:20;7.38;;;6.85;;
9964;SDS011;5023;53.554;9.964;2023-08-30T03:47:23;7.65;;;6.95;;
9964;SDS011;5023;53.554;9.964;2023-08-30T03:52:25;6.95;;;6.40;;
9964;SDS011;5023;53.554;9.964;2023-08-30T03:57:27;9.82;;;7.53;;
9964;SDS011;5023;53.554;9.964;2023-08-30T04:02:30;7.18;;;6.57;;
9964;SDS011;5023;53.554;9.964;2023-08-30T04:07:32;8.32;;;7.53;;
9964;SDS011;5023;53.554;9.964;2023-08-30T04:12:35;7.82;;;7.13;;
9964;SDS011;5023;53.554;9.964;2023-08-30T04:17:38;8.27;;;6.78;;
9964;SDS011;5023;53.554;9.964;2023-08-30T04:22:40;7.03;;;6.43;;
9964;SDS011;5023;53.554;9.964;2023-08-30T04:27:42;9.55;;;7.28;;
9964;SDS011;5023;53.554;9.964;2023-08-30T04:32:45;7.25;;;6.63;;
9964;SDS011;5023;53.554;9.964;2023-08-30T04:37:47;7.45;;;6.82;;
9964;SDS011;5023;53.554;9.964;2023-08-30T04:42:49;7.18;;;6.57;;
9964;SDS011;5023;53.554;9.964;2023-08-30T04:47:52;7.18;;;6.57;;
9964;SDS011;5023;53.554;9.964;2023-08-30T04:52:54;7.72;;;7.03;;
9964;SDS011;5023;53.554;9.964;2023-08-30T04:57:56;6.80;;;6.20;;
9964;SDS011;5023;53.554;9.964;2023-08-30T05:02:59;7.82;;;7.05;;
9964;SDS011;5023;53.554;9.964;2023-08-30T05:08:01;8.52;;;7.72;;
9964;SDS011;5023;53.554;9.964;2023-08-30T05:13:04;8.05;;;7.35;;
9964;SDS011;5023;53.554;9.964;2023-08-30T05:18:07;9.15;;;6.90;;
9964;SDS011;5023;53.554;9.964;2023-08-30T05:23:09;9.25;;;7.90;;
9964;SDS011;5023;53.554;9.964;2023-08-30T05:28:11;8.70;;;7.90;;
9964;SDS011;5023;53.554;9.964;2023-08-30T05:33:14;8.50;;;7.68;;
9964;SDS011;5023;53.554;9.964;2023-08-30T05:38:16;9.85;;;7.78;;
9964;SDS011;5023;53.554;9.964;2023-08-30T05:43:18;8.73;;;7.97;;
9964;SDS011;5023;53.554;9.964;2023-08-30T05:48:22;6.88;;;6.28;;
9964;SDS011;5023;53.554;9.964;2023-08-30T05:53:24;8.82;;;8.02;;
9964;SDS011;5023;53.554;9.964;2023-08-30T05:58:26;10.30;;;7.97;;
9964;SDS011;5023;53.554;9.964;2023-08-30T06:03:29;8.73;;;7.93;;
9964;SDS011;5023;53.554;9.964;2023-08-30T06:08:31;9.75;;;7.90;;
9964;SDS011;5023;53.554;9.964;2023-08-30T06:13:33;9.48;;;7.75;;
9964;SDS011;5023;53.554;9.964;2023-08-30T06:18:36;9.50;;;7.50;;
9964;SDS011;5023;53.554;9.964;2023-08-30T06:23:38;6.97;;;6.28;;
9964;SDS011;5023;53.554;9.964;2023-08-30T06:28:40;7.90;;;7.18;;
9964;SDS011;5023;53.554;9.964;2023-08-30T06:33:44;8.60;;;7.90;;
9964;SDS011;5023;53.554;9.964;2023-08-30T06:38:46;9.15;;;7.60;;
9964;SDS011;5023;53.554;9.964;2023-08-30T06:43:47;8.02;;;7.32;;
9964;SDS011;5023;53.554;9.964;2023-08-30T06:48:51;7.80;;;7.00;;
9964;SDS011;5023;53.554;9.964;2023-08-30T06:53:53;6.35;;;5.60;;
9964;SDS011;5023;53.554;9.964;2023-08-30T06:59:00;8.10;;;7.30;;
9964;SDS011;5023;53.554;9.964;2023-08-30T07:04:03;7.05;;;6.45;;
9964;SDS011;5023;53.554;9.964;2023-08-30T07:09:05;7.88;;;6.95;;
9964;SDS011;5023;53.554;9.964;2023-08-30T07:14:07;8.40;;;7.60;;
9964;SDS011;5023;53.554;9.964;2023-08-30T07:19:10;7.82;;;7.13;;
9964;SDS011;5023;53.554;9.964;2023-08-30T07:24:12;8.73;;;7.70;;
9964;SDS011;5023;53.554;9.964;2023-08-30T07:29:14;8.27;;;7.57;;
9964;SDS011;5023;53.554;9.964;2023-08-30T07:34:17;8.70;;;7.85;;
9964;SDS011;5023;53.554;9.964;2023-08-30T07:39:19;9.25;;;8.32;;
9964;SDS011;5023;53.554;9.964;2023-08-30T07:44:21;10.32;;;9.45;;
9964;SDS011;5023;53.554;9.964;2023-08-30T07:49:24;11.13;;;9.48;;
9964;SDS011;5023;53.554;9.964;2023-08-30T07:54:26;12.35;;;11.15;;
9964;SDS011;5023;53.554;9.964;2023-08-30T07:59:29;14.02;;;11.15;;
9964;SDS011;5023;53.554;9.964;2023-08-30T08:04:32;13.52;;;12.30;;
9964;SDS011;5023;53.554;9.964;2023-08-30T08:09:34;12.77;;;11.68;;
9964;SDS011;5023;53.554;9.964;2023-08-30T08:14:37;13.38;;;12.13;;
9964;SDS011;5023;53.554;9.964;2023-08-30T08:19:40;13.02;;;11.63;;
9964;SDS011;5023;53.554;9.964;2023-08-30T08:24:44;12.27;;;10.95;;
9964;SDS011;5023;53.554;9.964;2023-08-30T08:29:46;13.57;;;9.95;;
9964;SDS011;5023;53.554;9.964;2023-08-30T08:34:49;10.32;;;9.32;;
9964;SDS011;5023;53.554;9.964;2023-08-30T08:39:51;8.82;;;7.40;;
9964;SDS011;5023;53.554;9.964;2023-08-30T08:44:53;8.90;;;6.47;;
9964;SDS011;5023;53.554;9.964;2023-08-30T08:49:57;8.15;;;7.38;;
9964;SDS011;5023;53.554;9.964;2023-08-30T08:55:00;8.15;;;7.38;;
9964;SDS011;5023;53.554;9.964;2023-08-30T09:00:03;9.50;;;7.20;;
9964;SDS011;5023;53.554;9.964;2023-08-30T09:05:08;9.48;;;6.05;;
9964;SDS011;5023;53.554;9.964;2023-08-30T09:10:11;8.00;;;7.20;;
9964;SDS011;5023;53.554;9.964;2023-08-30T09:15:13;8.10;;;7.15;;
9964;SDS011;5023;53.554;9.964;2023-08-30T09:20:17;8.52;;;7.50;;
9964;SDS011;5023;53.554;9.964;2023-08-30T09:25:24;8.70;;;7.90;;
9964;SDS011;5023;53.554;9.964;2023-08-30T09:30:26;9.05;;;7.53;;
9964;SDS011;5023;53.554;9.964;2023-08-30T09:35:30;7.70;;;6.97;;
9964;SDS011;5023;53.554;9.964;2023-08-30T09:40:32;7.88;;;7.07;;
9964;SDS011;5023;53.554;9.964;2023-08-30T09:45:34;7.38;;;6.68;;
9964;SDS011;5023;53.554;9.964;2023-08-30T09:50:38;9.20;;;6.82;;
9964;SDS011;5023;53.554;9.964;2023-08-30T09:55:42;5.53;;;5.13;;
9964;SDS011;5023;53.554;9.964;2023-08-30T10:00:45;5.63;;;5.13;;
9964;SDS011;5023;53.554;9.964;2023-08-30T10:05:49;5.80;;;5.30;;
9964;SDS011;5023;53.554;9.964;2023-08-30T10:10:52;9.38;;;4.57;;
9964;SDS011;5023;53.554;9.964;2023-08-30T10:15:56;4.90;;;4.50;;
9964;SDS011;5023;53.554;9.964;2023-08-30T10:21:06;5.38;;;4.70;;
9964;SDS011;5023;53.554;9.964;2023-08-30T10:26:10;5.38;;;4.88;;
9964;SDS011;5023;53.554;9.964;2023-08-30T10:31:13;5.20;;;4.70;;
9964;SDS011;5023;53.554;9.964;2023-08-30T10:36:24;4.93;;;4.45;;
9964;SDS011;5023;53.554;9.964;2023-08-30T10:41:27;5.88;;;4.90;;
9964;SDS011;5023;53.554;9.964;2023-08-30T10:46:29;5.85;;;5.20;;
9964;SDS011;5023;53.554;9.964;2023-08-30T10:51:37;5.72;;;4.60;;
9964;SDS011;5023;53.554;9.964;2023-08-30T10:56:46;5.40;;;4.90;;
9964;SDS011;5023;53.554;9.964;2023-08-30T11:01:50;5.47;;;4.82;;
9964;SDS011;5023;53.554;9.964;2023-08-30T11:06:54;5.93;;;5.43;;
9964;SDS011;5023;53.554;9.964;2023-08-30T11:11:57;33.97;;;30.77;;
9964;SDS011;5023;53.554;9.964;2023-08-30T11:17:09;10.43;;;8.30;;
9964;SDS011;5023;53.554;9.964;2023-08-30T11:22:13;7.13;;;6.47;;
9964;SDS011;5023;53.554;9.964;2023-08-30T11:27:18;5.18;;;4.70;;
9964;SDS011;5023;53.554;9.964;2023-08-30T11:32:20;4.93;;;4.43;;
9964;SDS011;5023;53.554;9.964;2023-08-30T11:37:23;6.30;;;5.10;;
9964;SDS011;5023;53.554;9.964;2023-08-30T11:42:28;6.60;;;5.22;;
9964;SDS011;5023;53.554;9.964;2023-08-30T11:47:31;6.05;;;5.50;;
9964;SDS011;5023;53.554;9.964;2023-08-30T11:52:35;6.43;;;5.75;;
9964;SDS011;5023;53.554;9.964;2023-08-30T11:57:44;5.90;;;5.40;;
9964;SDS011;5023;53.554;9.964;2023-08-30T12:02:49;5.78;;;5.28;;
9964;SDS011;5023;53.554;9.964;2023-08-30T12:07:52;6.32;;;5.72;;
9964;SDS011;5023;53.554;9.964;2023-08-30T12:12:54;5.70;;;5.20;;
9964;SDS011;5023;53.554;9.964;2023-08-30T12:17:56;5.50;;;4.55;;
9964;SDS011;5023;53.554;9.964;2023-08-30T12:23:18;6.28;;;5.70;;
9964;SDS011;5023;53.554;9.964;2023-08-30T12:28:20;13.10;;;11.80;;
9964;SDS011;5023;53.554;9.964;2023-08-30T12:33:22;6.97;;;5.88;;
9964;SDS011;5023;53.554;9.964;2023-08-30T12:38:27;5.50;;;5.00;;
9964;SDS011;5023;53.554;9.964;2023-08-30T12:43:29;6.00;;;5.32;;
9964;SDS011;5023;53.554;9.964;2023-08-30T12:48:31;5.50;;;5.10;;
9964;SDS011;5023;53.554;9.964;2023-08-30T12:53:34;6.43;;;5.40;;
9964;SDS011;5023;53.554;9.964;2023-08-30T12:58:37;8.05;;;7.35;;
9964;SDS011;5023;53.554;9.964;2023-08-30T13:03:38;5.80;;;5.20;;
9964;SDS011;5023;53.554;9.964;2023-08-30T13:08:42;5.75;;;5.15;;
9964;SDS011;5023;53.554;9.964;2023-08-30T13:13:44;5.35;;;4.85;;
9964;SDS011;5023;53.554;9.964;2023-08-30T13:18:46;7.43;;;6.72;;
9964;SDS011;5023;53.554;9.964;2023-08-30T13:23:49;5.38;;;4.70;;
9964;SDS011;5023;53.554;9.964;2023-08-30T13:28:52;5.25;;;4.78;;
9964;SDS011;5023;53.554;9.964;2023-08-30T13:33:54;5.18;;;4.78;;
9964;SDS011;5023;53.554;9.964;2023-08-30T13:38:57;5.57;;;5.07;;
9964;SDS011;5023;53.554;9.964;2023-08-30T13:43:59;5.13;;;4.63;;
9964;SDS011;5023;53.554;9.964;2023-08-30T13:49:01;5.18;;;4.30;;
9964;SDS011;5023;53.554;9.964;2023-08-30T13:54:05;4.60;;;4.10;;
9964;SDS011;5023;53.554;9.964;2023-08-30T13:59:07;4.70;;;4.30;;
9964;SDS011;5023;53.554;9.964;2023-08-30T14:04:09;11.65;;;10.00;;
9964;SDS011;5023;53.554;9.964;2023-08-30T14:09:12;6.20;;;5.05;;
9964;SDS011;5023;53.554;9.964;2023-08-30T14:14:14;5.05;;;4.65;;
9964;SDS011;5023;53.554;9.964;2023-08-30T14:19:16;4.93;;;4.43;;
9964;SDS011;5023;53.554;9.964;2023-08-30T14:24:19;5.70;;;4.32;;
9964;SDS011;5023;53.554;9.964;2023-08-30T14:29:21;5.13;;;4.43;;
9964;SDS011;5023;53.554;9.964;2023-08-30T14:34:23;4.53;;;4.00;;
9964;SDS011;5023;53.554;9.964;2023-08-30T14:39:26;5.80;;;5.30;;
9964;SDS011;5023;53.554;9.964;2023-08-30T14:44:28;5.40;;;4.90;;
9964;SDS011;5023;53.554;9.964;2023-08-30T14:49:30;6.60;;;4.75;;
9964;SDS011;5023;53.554;9.964;2023-08-30T14:54:34;6.55;;;4.47;;
9964;SDS011;5023;53.554;9.964;2023-08-30T14:59:36;8.60;;;5.57;;
9964;SDS011;5023;53.554;9.964;2023-08-30T15:04:39;5.43;;;4.90;;
9964;SDS011;5023;53.554;9.964;2023-08-30T15:09:43;5.85;;;5.30;;
9964;SDS011;5023;53.554;9.964;2023-08-30T15:14:45;9.85;;;8.85;;
9964;SDS011;5023;53.554;9.964;2023-08-30T15:19:47;11.85;;;10.57;;
9964;SDS011;5023;53.554;9.964;2023-08-30T15:24:51;6.20;;;4.72;;
9964;SDS011;5023;53.554;9.964;2023-08-30T15:29:54;5.63;;;5.13;;
9964;SDS011;5023;53.554;9.964;2023-08-30T15:34:56;7.72;;;6.93;;
9964;SDS011;5023;53.554;9.964;2023-08-30T15:40:00;6.57;;;5.97;;
9964;SDS011;5023;53.554;9.964;2023-08-30T15:45:04;9.23;;;8.48;;
9964;SDS011;5023;53.554;9.964;2023-08-30T15:50:07;10.02;;;7.50;;
9964;SDS011;5023;53.554;9.964;2023-08-30T15:55:11;6.32;;;5.65;;
9964;SDS011;5023;53.554;9.964;2023-08-30T16:00:13;6.05;;;5.45;;
9964;SDS011;5023;53.554;9.964;2023-08-30T16:05:16;6.53;;;5.05;;
9964;SDS011;5023;53.554;9.964;2023-08-30T16:10:19;10.48;;;9.27;;
9964;SDS011;5023;53.554;9.964;2023-08-30T16:15:21;8.98;;;7.57;;
9964;SDS011;5023;53.554;9.964;2023-08-30T16:20:23;9.60;;;8.68;;
9964;SDS011;5023;53.554;9.964;2023-08-30T16:25:27;9.55;;;8.60;;
9964;SDS011;5023;53.554;9.964;2023-08-30T16:30:29;8.40;;;7.68;;
9964;SDS011;5023;53.554;9.964;2023-08-30T16:35:32;12.75;;;9.25;;
9964;SDS011;5023;53.554;9.964;2023-08-30T16:40:36;8.30;;;7.50;;
9964;SDS011;5023;53.554;9.964;2023-08-30T16:45:38;10.65;;;9.55;;
9964;SDS011;5023;53.554;9.964;2023-08-30T16:50:40;8.80;;;7.78;;
9964;SDS011;5023;53.554;9.964;2023-08-30T16:55:43;8.75;;;7.38;;
9964;SDS011;5023;53.554;9.964;2023-08-30T17:00:46;9.52;;;8.52;;
9964;SDS011;5023;53.554;9.964;2023-08-30T17:05:48;8.95;;;8.15;;
9964;SDS011;5023;53.554;9.964;2023-08-30T17:10:52;9.25;;;8.32;;
9964;SDS011;5023;53.554;9.964;2023-08-30T17:15:53;9.05;;;7.70;;
9964;SDS011;5023;53.554;9.964;2023-08-30T17:20:58;11.15;;;10.13;;
9964;SDS011;5023;53.554;9.964;2023-08-30T17:26:01;11.73;;;9.88;;
9964;SDS011;5023;53.554;9.964;2023-08-30T17:31:04;9.80;;;8.93;;
9964;SDS011;5023;53.554;9.964;2023-08-30T17:36:07;11.40;;;10.40;;
9964;SDS011;5023;53.554;9.964;2023-08-30T17:41:11;11.70;;;10.45;;
9964;SDS011;5023;53.554;9.964;2023-08-30T17:46:13;11.35;;;10.30;;
9964;SDS011;5023;53.554;9.964;2023-08-30T17:51:15;12.48;;;11.25;;
9964;SDS011;5023;53.554;9.964;2023-08-30T17:56:19;14.18;;;12.82;;
9964;SDS011;5023;53.554;9.964;2023-08-30T18:01:22;13.18;;;11.98;;
9964;SDS011;5023;53.554;9.964;2023-08-30T18:06:27;13.52;;;12.18;;
9964;SDS011;5023;53.554;9.964;2023-08-30T18:11:30;15.93;;;14.15;;
9964;SDS011;5023;53.554;9.964;2023-08-30T18:16:32;13.30;;;11.65;;
9964;SDS011;5023;53.554;9.964;2023-08-30T18:21:34;12.57;;;11.38;;
9964;SDS011;5023;53.554;9.964;2023-08-30T18:26:37;10.93;;;9.93;;
9964;SDS011;5023;53.554;9.964;2023-08-30T18:31:40;10.73;;;9.82;;
9964;SDS011;5023;53.554;9.964;2023-08-30T18:36:42;14.43;;;12.95;;
9964;SDS011;5023;53.554;9.964;2023-08-30T18:41:46;14.30;;;12.98;;
9964;SDS011;5023;53.554;9.964;2023-08-30T18:46:48;14.20;;;12.80;;
9964;SDS011;5023;53.554;9.964;2023-08-30T18:51:51;13.10;;;12.00;;
9964;SDS011;5023;53.554;9.964;2023-08-30T18:56:54;11.27;;;10.27;;
9964;SDS011;5023;53.554;9.964;2023-08-30T19:01:56;12.18;;;10.80;;
9964;SDS011;5023;53.554;9.964;2023-08-30T19:06:58;14.05;;;11.52;;
9964;SDS011;5023;53.554;9.964;2023-08-30T19:12:01;12.48;;;11.27;;
9964;SDS011;5023;53.554;9.964;2023-08-30T19:17:03;11.50;;;10.40;;
9964;SDS011;5023;53.554;9.964;2023-08-30T19:22:06;11.13;;;10.13;;
9964;SDS011;5023;53.554;9.964;2023-08-30T19:27:09;8.23;;;7.32;;
9964;SDS011;5023;53.554;9.964;2023-08-30T19:32:11;6.88;;;6.30;;
9964;SDS011;5023;53.554;9.964;2023-08-30T19:37:13;8.05;;;7.25;;
9964;SDS011;5023;53.554;9.964;2023-08-30T19:42:17;7.22;;;6.63;;
9964;SDS011;5023;53.554;9.964;2023-08-30T19:47:21;8.95;;;8.15;;
9964;SDS011;5023;53.554;9.964;2023-08-30T19:52:23;8.20;;;7.43;;
9964;SDS011;5023;53.554;9.964;2023-08-30T19:57:27;6.05;;;5.55;;
9964;SDS011;5023;53.554;9.964;2023-08-30T20:02:29;5.93;;;5.43;;
9964;SDS011;5023;53.554;9.964;2023-08-30T20:07:31;6.40;;;5.72;;
9964;SDS011;5023;53.554;9.964;2023-08-30T20:12:34;7.05;;;5.85;;
9964;SDS011;5023;53.554;9.964;2023-08-30T20:17:36;6.03;;;5.43;;
9964;SDS011;5023;53.554;9.964;2023-08-30T20:22:38;11.20;;;10.10;;
9964;SDS011;5023;53.554;9.964;2023-08-30T20:27:43;8.32;;;7.53;;
9964;SDS011;5023;53.554;9.964;2023-08-30T20:32:45;8.68;;;7.88;;
9964;SDS011;5023;53.554;9.964;2023-08-30T20:37:47;7.50;;;6.57;;
9964;SDS011;5023;53.554;9.964;2023-08-30T20:42:52;7.10;;;6.40;;
9964;SDS011;5023;53.554;9.964;2023-08-30T20:47:54;12.77;;;11.40;;
9964;SDS011;5023;53.554;9.964;2023-08-30T20:52:56;7.65;;;6.95;;
9964;SDS011;5023;53.554;9.964;2023-08-30T20:57:59;7.32;;;6.03;;
9964;SDS011;5023;53.554;9.964;2023-08-30T21:03:01;6.00;;;5.50;;
9964;SDS011;5023;53.554;9.964;2023-08-30T21:08:04;6.70;;;6.10;;
9964;SDS011;5023;53.554;9.964;2023-08-30T21:13:08;8.52;;;7.72;;
9964;SDS011;5023;53.554;9.964;2023-08-30T21:18:10;7.07;;;6.47;;
9964;SDS011;5023;53.554;9.964;2023-08-30T21:23:11;8.68;;;7.88;;
9964;SDS011;5023;53.554;9.964;2023-08-30T21:28:15;9.43;;;8.68;;
9964;SDS011;5023;53.554;9.964;2023-08-30T21:33:17;9.93;;;9.10;;
9964;SDS011;5023;53.554;9.964;2023-08-30T21:38:20;10.60;;;9.70;;
9964;SDS011;5023;53.554;9.964;2023-08-30T21:43:24;15.75;;;14.35;;
9964;SDS011;5023;53.554;9.964;2023-08-30T21:48:25;11.90;;;10.90;;
9964;SDS011;5023;53.554;9.964;2023-08-30T21:53:27;12.75;;;11.70;;
9964;SDS011;5023;53.554;9.964;2023-08-30T21:58:31;15.57;;;14.18;;
9964;SDS011;5023;53.554;9.964;2023-08-30T22:03:33;14.43;;;13.13;;
9964;SDS011;5023;53.554;9.964;2023-08-30T22:08:35;13.50;;;12.30;;
9964;SDS011;5023;53.554;9.964;2023-08-30T22:13:38;13.63;;;12.38;;
9964;SDS011;5023;53.554;9.964;2023-08-30T22:18:40;16.23;;;13.73;;
9964;SDS011;5023;53.554;9.964;2023-08-30T22:23:43;13.10;;;11.95;;
9964;SDS011;5023;53.554;9.964;2023-08-30T22:28:46;19.70;;;17.92;;
9964;SDS011;5023;53.554;9.964;2023-08-30T22:33:48;27.85;;;25.40;;
9964;SDS011;5023;53.554;9.964;2023-08-30T22:38:51;15.23;;;13.93;;
9964;SDS011;5023;53.554;9.964;2023-08-30T22:43:54;38.08;;;34.67;;
9964;SDS011;5023;53.554;9.964;2023-08-30T22:48:56;26.88;;;24.38;;
9964;SDS011;5023;53.554;9.964;2023-08-30T22:53:58;21.23;;;19.23;;
9964;SDS011;5023;53.554;9.964;2023-08-30T22:59:04;19.77;;;17.92;;
9964;SDS011;5023;53.554;9.964;2023-08-30T23:04:06;19.23;;;17.40;;
9964;SDS011;5023;53.554;9.964;2023-08-30T23:09:08;14.57;;;13.27;;
9964;SDS011;5023;53.554;9.964;2023-08-30T23:14:11;13.45;;;12.25;;
9964;SDS011;5023;53.554;9.964;2023-08-30T23:19:13;11.82;;;10.82;;
9964;SDS011;5023;53.554;9.964;2023-08-30T23:24:15;12.45;;;11.25;;
9964;SDS011;5023;53.554;9.964;2023-08-30T23:29:19;12.68;;;11.60;;
9964;SDS011;5023;53.554;9.964;2023-08-30T23:34:26;16.48;;;14.93;;
9964;SDS011;5023;53.554;9.964;2023-08-30T23:39:28;10.88;;;9.95;;
9964;SDS011;5023;53.554;9.964;2023-08-30T23:44:31;11.05;;;10.05;;
9964;SDS011;5023;53.554;9.964;2023-08-30T23:49:33;9.82;;;8.98;;
9964;SDS011;5023;53.554;9.964;2023-08-30T23:54:35;11.13;;;10.23;;
9964;SDS011;5023;53.554;9.964;2023-08-30T23:59:39;10.20;;;9.30;;
